Time;durP1;ratioP1;P1;durP2;ratioP2;P2;SDS_P1;SDS_P2;PMS_P1;PMS_P2;Temp;Humidity;BMP_temperature;BMP_pressure;BME280_temperature;BME280_humidity;BME280_pressure;Samples;Min_cycle;Max_cycle;Signal;HPM_P1;HPM_P2
2021/11/01 00:00:59;;;;;;;30.77;20.58;;;;;;;7.79;100.00;95203.47;5001235;28;20066;-56
2021/11/01 00:03:28;;;;;;;33.28;20.70;;;;;;;7.59;100.00;95202.88;5008355;28;20081;-56
2021/11/01 00:05:56;;;;;;;31.77;20.88;;;;;;;6.99;100.00;95221.22;5004180;28;20092;-57
2021/11/01 00:08:25;;;;;;;35.42;21.00;;;;;;;7.20;100.00;95219.06;5001751;28;20066;-59
2021/11/01 00:10:53;;;;;;;31.58;20.77;;;;;;;7.64;100.00;95219.00;5001373;28;20069;-57
2021/11/01 00:13:22;;;;;;;31.73;20.67;;;;;;;7.87;100.00;95215.78;4999464;28;20076;-58
2021/11/01 00:15:52;;;;;;;29.33;18.73;;;;;;;7.72;100.00;95216.38;5003625;28;20082;-57
2021/11/01 00:18:21;;;;;;;27.92;17.95;;;;;;;7.55;100.00;95214.69;5007821;28;20089;-53
2021/11/01 00:20:49;;;;;;;27.52;18.48;;;;;;;7.60;100.00;95204.53;5004127;28;20080;-54
2021/11/01 00:23:18;;;;;;;31.67;18.42;;;;;;;7.48;100.00;95201.38;5003333;28;20074;-59
2021/11/01 00:25:46;;;;;;;31.00;19.52;;;;;;;7.54;100.00;95190.25;5005247;28;20065;-60
2021/11/01 00:28:15;;;;;;;24.77;17.85;;;;;;;7.16;100.00;95194.16;5011919;28;20073;-58
2021/11/01 00:30:44;;;;;;;23.08;16.15;;;;;;;6.84;100.00;95195.56;5009270;28;20062;-57
2021/11/01 00:33:14;;;;;;;23.58;17.42;;;;;;;7.36;100.00;95190.34;5007018;28;20089;-58
2021/11/01 00:35:43;;;;;;;24.70;17.77;;;;;;;7.60;100.00;95188.78;5005169;28;20074;-60
2021/11/01 00:38:11;;;;;;;25.58;17.50;;;;;;;7.56;100.00;95190.06;5008215;28;20475;-55
2021/11/01 00:40:40;;;;;;;24.30;17.58;;;;;;;7.56;100.00;95187.47;5004644;28;20065;-56
2021/11/01 00:43:08;;;;;;;25.73;17.15;;;;;;;7.48;100.00;95176.94;5009318;28;20092;-55
2021/11/01 00:45:37;;;;;;;24.52;17.45;;;;;;;6.98;100.00;95180.25;5002430;28;20081;-58
2021/11/01 00:48:05;;;;;;;27.00;18.55;;;;;;;7.56;100.00;95183.03;5009415;28;20559;-59
2021/11/01 00:50:37;;;;;;;28.45;19.35;;;;;;;7.53;100.00;95170.22;5003070;28;20072;-59
2021/11/01 00:53:06;;;;;;;32.78;21.63;;;;;;;7.62;100.00;95168.47;5008573;28;20065;-60
2021/11/01 00:55:37;;;;;;;32.13;19.80;;;;;;;7.79;100.00;95164.09;5008963;28;20061;-53
2021/11/01 00:58:06;;;;;;;;;;;;;;;7.13;100.00;95163.81;5005187;28;20077;-54
2021/11/01 01:00:34;;;;;;;26.10;17.58;;;;;;;6.61;100.00;95171.66;5004917;28;19960;-60
2021/11/01 01:03:03;;;;;;;28.05;19.73;;;;;;;6.76;100.00;95168.50;5005771;28;20532;-55
2021/11/01 01:05:32;;;;;;;27.77;18.10;;;;;;;6.69;100.00;95170.91;4997982;28;20065;-57
2021/11/01 01:08:01;;;;;;;29.92;19.10;;;;;;;6.97;100.00;95158.47;5005051;28;20062;-57
2021/11/01 01:10:30;;;;;;;27.60;18.98;;;;;;;7.02;100.00;95158.84;5003686;28;20065;-58
2021/11/01 01:12:58;;;;;;;28.15;19.30;;;;;;;6.93;100.00;95161.56;5005245;28;20065;-59
2021/11/01 01:15:34;;;;;;;29.23;19.50;;;;;;;7.04;100.00;95161.31;5008369;28;20090;-60
2021/11/01 01:18:08;;;;;;;29.13;18.60;;;;;;;7.19;100.00;95167.63;4999695;28;20308;-55
2021/11/01 01:20:37;;;;;;;27.38;18.75;;;;;;;7.49;100.00;95160.22;5005036;28;20071;-58
2021/11/01 01:23:06;;;;;;;29.20;18.70;;;;;;;7.20;100.00;95165.81;4999923;28;20068;-57
2021/11/01 01:25:54;;;;;;;24.83;16.90;;;;;;;6.74;100.00;95166.00;5008365;28;20074;-59
2021/11/01 01:28:23;;;;;;;23.58;17.05;;;;;;;6.85;100.00;95154.47;5004588;28;20467;-58
2021/11/01 01:30:55;;;;;;;22.90;15.93;;;;;;;6.73;100.00;95150.47;4998365;28;20085;-60
2021/11/01 01:33:23;;;;;;;25.35;18.33;;;;;;;7.19;100.00;95149.28;5004620;28;20302;-58
2021/11/01 01:35:52;;;;;;;26.52;17.42;;;;;;;7.09;100.00;95159.88;4999956;28;20073;-60
2021/11/01 01:38:22;;;;;;;32.05;18.73;;;;;;;7.29;100.00;95151.75;5007332;28;20072;-58
2021/11/01 01:40:53;;;;;;;26.45;18.23;;;;;;;7.35;100.00;95154.56;4997213;28;20420;-58
2021/11/01 01:43:22;;;;;;;26.42;17.90;;;;;;;7.37;100.00;95162.31;4989777;28;20074;-61
2021/11/01 01:45:51;;;;;;;28.00;18.35;;;;;;;7.17;100.00;95145.97;4992305;28;20086;-57
2021/11/01 01:48:20;;;;;;;26.55;19.08;;;;;;;7.06;100.00;95161.97;5008479;28;20088;-58
2021/11/01 01:50:48;;;;;;;26.25;19.20;;;;;;;7.16;100.00;95157.44;5000849;28;20468;-61
2021/11/01 01:53:17;;;;;;;28.58;18.00;;;;;;;7.08;100.00;95154.75;4999446;28;20061;-57
2021/11/01 01:55:47;;;;;;;28.55;19.33;;;;;;;7.33;100.00;95150.50;4998609;28;20555;-59
2021/11/01 01:58:15;;;;;;;24.50;16.73;;;;;;;6.98;100.00;95156.66;4996823;28;20448;-58
2021/11/01 02:00:56;;;;;;;23.48;17.58;;;;;;;7.11;100.00;95146.59;4993388;28;20096;-55
2021/11/01 02:03:25;;;;;;;25.33;17.63;;;;;;;7.21;100.00;95149.09;4984529;28;20497;-58
2021/11/01 02:06:07;;;;;;;25.10;16.88;;;;;;;6.72;100.00;95144.41;5004915;28;20320;-58
2021/11/01 02:08:41;;;;;;;27.23;19.17;;;;;;;6.94;100.00;95144.84;4988818;28;20070;-60
2021/11/01 02:11:17;;;;;;;27.65;19.00;;;;;;;7.14;100.00;95148.91;4987968;28;20104;-57
2021/11/01 02:13:50;;;;;;;25.48;18.25;;;;;;;6.85;100.00;95146.63;4981715;28;20070;-59
2021/11/01 02:16:19;;;;;;;26.40;18.70;;;;;;;6.83;100.00;95144.13;4981594;28;20070;-59
2021/11/01 02:18:50;;;;;;;29.05;18.27;;;;;;;7.18;100.00;95133.69;4980877;28;20080;-57
2021/11/01 02:21:26;;;;;;;30.38;18.92;;;;;;;7.13;100.00;95136.78;4989755;28;20074;-58
2021/11/01 02:24:04;;;;;;;24.90;17.95;;;;;;;7.06;100.00;95138.38;4985859;28;20074;-58
2021/11/01 02:26:34;;;;;;;25.30;17.77;;;;;;;7.28;100.00;95135.22;4994104;28;20085;-62
2021/11/01 02:29:03;;;;;;;;;;;;;;;7.31;100.00;95124.41;4995280;28;20461;-56
2021/11/01 02:31:32;;;;;;;21.48;15.27;;;;;;;7.21;100.00;95128.13;4987079;28;19953;-56
2021/11/01 02:34:01;;;;;;;23.67;16.70;;;;;;;6.95;100.00;95126.38;4990560;28;20069;-59
2021/11/01 02:36:30;;;;;;;27.00;17.88;;;;;;;7.14;100.00;95122.69;4998547;28;20109;-57
2021/11/01 02:38:59;;;;;;;26.08;18.40;;;;;;;6.61;100.00;95126.31;5005363;28;20417;-57
2021/11/01 02:41:30;;;;;;;29.48;18.63;;;;;;;6.43;100.00;95131.56;5000669;28;20073;-57
2021/11/01 02:44:01;;;;;;;26.00;18.20;;;;;;;7.00;100.00;95120.66;5007516;28;20073;-57
2021/11/01 02:46:34;;;;;;;27.08;18.98;;;;;;;7.07;100.00;95119.88;5006048;28;20100;-59
2021/11/01 02:49:03;;;;;;;32.10;19.35;;;;;;;7.06;100.00;95120.03;5004020;28;20065;-60
2021/11/01 02:51:32;;;;;;;26.33;18.00;;;;;;;7.02;100.00;95116.91;5001516;28;20078;-57
2021/11/01 02:54:02;;;;;;;24.92;17.65;;;;;;;6.86;100.00;95114.19;5008695;28;20221;-59
2021/11/01 02:56:30;;;;;;;22.45;16.10;;;;;;;6.50;100.00;95110.84;5006479;28;20142;-58
2021/11/01 02:59:01;;;;;;;26.00;17.67;;;;;;;6.70;100.00;95114.91;4995623;28;20088;-60
2021/11/01 03:01:30;;;;;;;25.42;17.75;;;;;;;6.37;100.00;95112.06;5004209;28;20082;-57
2021/11/01 03:03:58;;;;;;;28.35;17.48;;;;;;;6.31;100.00;95117.91;5003712;28;20457;-58
2021/11/01 03:06:31;;;;;;;29.88;19.15;;;;;;;6.09;100.00;95111.34;4999954;28;20085;-56
2021/11/01 03:08:59;;;;;;;31.27;20.42;;;;;;;6.56;100.00;95111.03;5005066;28;20062;-56
2021/11/01 03:11:29;;;;;;;30.67;20.45;;;;;;;6.87;100.00;95107.97;5004772;28;20065;-54
2021/11/01 03:14:00;;;;;;;32.10;20.58;;;;;;;6.97;100.00;95092.97;4996459;28;20081;-57
2021/11/01 03:16:28;;;;;;;32.75;21.25;;;;;;;6.85;100.00;95105.50;5002772;28;20596;-61
2021/11/01 03:19:10;;;;;;;33.78;21.40;;;;;;;7.06;100.00;95099.88;5006937;28;20077;-55
2021/11/01 03:21:42;;;;;;;34.00;20.40;;;;;;;6.60;100.00;95088.00;5022993;28;20096;-58
2021/11/01 03:24:12;;;;;;;32.20;19.10;;;;;;;6.60;100.00;95090.59;5001031;28;20080;-60
2021/11/01 03:26:42;;;;;;;32.35;19.98;;;;;;;6.68;100.00;95077.59;4997080;28;20074;-58
2021/11/01 03:29:13;;;;;;;36.10;19.80;;;;;;;6.56;100.00;95081.41;5003158;28;20081;-57
2021/11/01 03:31:41;;;;;;;30.45;19.33;;;;;;;6.68;100.00;95076.75;5005931;28;20070;-59
2021/11/01 03:34:10;;;;;;;28.23;19.05;;;;;;;6.71;100.00;95076.44;4993850;28;20076;-57
2021/11/01 03:36:39;;;;;;;29.15;18.42;;;;;;;6.65;100.00;95067.41;4996612;28;20085;-58
2021/11/01 03:39:11;;;;;;;28.40;19.15;;;;;;;6.49;100.00;95072.53;4983653;28;20086;-59
2021/11/01 03:41:41;;;;;;;36.03;20.63;;;;;;;6.14;100.00;95080.31;4981379;28;20062;-60
2021/11/01 03:44:17;;;;;;;31.52;20.23;;;;;;;5.91;100.00;95076.47;4984174;28;20074;-59
2021/11/01 03:46:51;;;;;;;31.00;20.15;;;;;;;6.36;100.00;95068.50;4983722;28;20081;-60
2021/11/01 03:49:21;;;;;;;32.22;20.77;;;;;;;6.20;100.00;95071.03;4986976;28;20072;-60
2021/11/01 03:51:52;;;;;;;30.77;20.20;;;;;;;6.02;100.00;95060.59;4986618;28;20078;-58
2021/11/01 03:54:22;;;;;;;32.72;20.48;;;;;;;6.63;100.00;95061.50;5007420;28;20074;-59
2021/11/01 03:56:52;;;;;;;30.77;20.02;;;;;;;6.59;100.00;95052.31;5004569;28;20130;-60
2021/11/01 03:59:22;;;;;;;29.00;19.00;;;;;;;6.51;100.00;95053.09;5006237;28;20053;-60
2021/11/01 04:01:50;;;;;;;31.15;19.95;;;;;;;6.85;100.00;95057.53;5002543;28;20062;-59
2021/11/01 04:04:19;;;;;;;32.55;19.70;;;;;;;6.61;100.00;95066.91;5007951;28;20058;-56
2021/11/01 04:06:47;;;;;;;32.55;19.75;;;;;;;6.52;100.00;95067.00;5003968;28;20074;-60
2021/11/01 04:09:17;;;;;;;36.53;21.02;;;;;;;6.50;100.00;95061.06;5011763;28;20077;-55
2021/11/01 04:11:50;;;;;;;35.63;21.55;;;;;;;6.36;100.00;95057.22;5003623;28;20543;-58
2021/11/01 04:14:21;;;;;;;31.75;20.00;;;;;;;6.17;100.00;95042.53;5014211;28;20078;-59
2021/11/01 04:16:56;;;;;;;32.97;21.63;;;;;;;6.30;100.00;95052.63;5024428;28;20086;-58
2021/11/01 04:19:38;;;;;;;36.10;21.58;;;;;;;6.41;100.00;95045.31;5002382;28;20527;-59
2021/11/01 04:22:06;;;;;;;32.65;20.30;;;;;;;6.57;100.00;95049.84;5005083;28;20062;-60
2021/11/01 04:24:35;;;;;;;32.83;21.52;;;;;;;6.61;100.00;95053.81;4984813;28;20082;-60
2021/11/01 04:27:04;;;;;;;33.63;21.65;;;;;;;6.65;100.00;95056.94;5002011;28;20076;-54
2021/11/01 04:29:33;;;;;;;34.00;21.70;;;;;;;6.81;100.00;95057.03;5010830;28;20543;-58
2021/11/01 04:32:20;;;;;;;33.55;20.85;;;;;;;6.60;100.00;95054.75;5000827;28;20062;-57
2021/11/01 04:34:53;;;;;;;34.30;21.63;;;;;;;6.66;100.00;95054.16;4998303;28;20056;-57
2021/11/01 04:37:22;;;;;;;33.00;20.80;;;;;;;6.26;100.00;95056.50;5008886;28;20477;-58
2021/11/01 04:40:11;;;;;;;37.00;23.00;;;;;;;6.59;100.00;95050.50;5009465;28;20524;-61
2021/11/01 04:43:02;;;;;;;37.25;22.63;;;;;;;6.71;100.00;95061.56;5004463;28;20505;-58
2021/11/01 04:54:03;;;;;;;32.78;21.00;;;;;;;6.53;100.00;95066.00;5004407;28;20255;-59
2021/11/01 04:56:32;;;;;;;28.45;19.08;;;;;;;6.01;100.00;95072.00;5006440;28;20061;-58
2021/11/01 04:59:00;;;;;;;30.25;20.02;;;;;;;6.17;100.00;95068.72;4995549;28;20081;-56
2021/11/01 05:01:34;;;;;;;34.20;22.02;;;;;;;6.39;100.00;95060.34;5001925;28;20066;-57
2021/11/01 05:04:06;;;;;;;35.92;23.00;;;;;;;6.47;100.00;95058.75;5005626;28;20076;-61
2021/11/01 05:06:36;;;;;;;37.47;24.00;;;;;;;6.41;100.00;95062.84;5003091;28;20077;-57
2021/11/01 05:09:10;;;;;;;40.20;25.17;;;;;;;6.36;100.00;95075.56;5005900;28;20065;-56
2021/11/01 05:11:43;;;;;;;41.85;25.75;;;;;;;6.47;100.00;95072.72;4999312;28;20467;-59
2021/11/01 05:14:14;;;;;;;44.03;27.33;;;;;;;6.82;100.00;95070.94;5004020;28;20073;-59
2021/11/01 05:16:52;;;;;;;43.38;26.00;;;;;;;6.76;100.00;95074.19;5002184;28;20062;-55
2021/11/01 05:19:25;;;;;;;46.03;28.15;;;;;;;6.68;100.00;95074.16;5001373;28;20066;-58
2021/11/01 05:22:05;;;;;;;44.05;27.42;;;;;;;6.81;100.00;95069.28;5005180;28;20420;-59
2021/11/01 05:24:37;;;;;;;42.55;25.98;;;;;;;6.41;100.00;95070.69;5000721;28;20161;-58
2021/11/01 05:27:34;;;;;;;43.97;26.92;;;;;;;6.65;100.00;95073.47;5002730;28;20089;-59
2021/11/01 05:30:07;;;;;;;40.55;26.52;;;;;;;6.62;100.00;95072.94;4999451;28;20383;-60
2021/11/01 05:32:39;;;;;;;41.22;25.52;;;;;;;6.58;100.00;95082.91;5020370;28;20674;-57
2021/11/01 05:35:09;;;;;;;40.67;25.75;;;;;;;6.75;100.00;95083.03;5004375;28;20096;-59
2021/11/01 05:37:38;;;;;;;41.47;25.63;;;;;;;6.63;100.00;95082.44;5005928;28;20087;-56
2021/11/01 05:40:07;;;;;;;44.45;26.08;;;;;;;6.64;100.00;95084.94;4994436;28;20068;-57
2021/11/01 05:42:35;;;;;;;41.05;26.08;;;;;;;6.54;100.00;95075.53;5004026;28;20776;-59
2021/11/01 05:45:05;;;;;;;40.72;25.08;;;;;;;6.45;100.00;95081.69;5007239;28;20540;-62
2021/11/01 05:47:33;;;;;;;40.83;24.92;;;;;;;6.56;100.00;95079.63;5005577;28;20089;-55
2021/11/01 05:50:03;;;;;;;41.50;26.55;;;;;;;6.58;100.00;95090.78;5003526;28;20058;-57
2021/11/01 05:52:34;;;;;;;42.58;25.60;;;;;;;6.40;100.00;95089.97;5000939;28;20061;-59
2021/11/01 05:55:10;;;;;;;42.58;24.75;;;;;;;6.38;100.00;95095.38;4999384;28;20184;-59
2021/11/01 05:57:47;;;;;;;42.47;24.92;;;;;;;6.68;100.00;95106.41;5003172;28;20085;-59
2021/11/01 06:00:34;;;;;;;40.97;24.60;;;;;;;6.59;100.00;95115.97;5002487;28;20069;-59
2021/11/01 06:03:05;;;;;;;35.38;18.27;;;;;;;6.24;100.00;95124.72;4999655;28;20065;-57
2021/11/01 06:08:43;;;;;;;27.00;18.17;;;;;;;6.38;100.00;95112.88;4996707;28;20061;-60
2021/11/01 06:13:58;;;;;;;29.55;20.08;;;;;;;6.80;100.00;95123.47;4995020;28;20069;-56
2021/11/01 06:16:32;;;;;;;31.25;21.15;;;;;;;7.18;100.00;95124.03;4994639;28;20661;-59
2021/11/01 06:19:01;;;;;;;31.02;20.40;;;;;;;7.31;100.00;95119.16;5006463;28;20078;-57
2021/11/01 06:21:29;;;;;;;32.80;22.15;;;;;;;7.67;100.00;95126.81;5004032;28;20747;-55
2021/11/01 06:24:13;;;;;;;31.52;21.42;;;;;;;7.42;100.00;95127.72;5006186;28;20135;-55
2021/11/01 06:26:42;;;;;;;32.38;21.70;;;;;;;7.81;100.00;95131.47;4996418;28;20469;-59
2021/11/01 06:29:10;;;;;;;28.80;18.42;;;;;;;7.54;100.00;95155.34;5002704;28;20073;-60
2021/11/01 06:31:44;;;;;;;27.75;18.88;;;;;;;8.00;100.00;95161.84;5000991;28;20494;-60
2021/11/01 06:34:32;;;;;;;33.80;18.20;;;;;;;8.13;100.00;95173.72;5005376;28;20073;-58
2021/11/01 06:39:59;;;;;;;36.17;22.30;;;;;;;8.52;100.00;95181.81;5002986;28;20108;-60
2021/11/01 06:42:36;;;;;;;37.28;24.30;;;;;;;8.91;100.00;95186.41;5008501;28;20073;-58
2021/11/01 06:45:31;;;;;;;40.42;24.40;;;;;;;9.07;100.00;95194.28;5007201;28;20338;-58
2021/11/01 07:16:05;;;;;;;35.13;23.20;;;;;;;11.69;100.00;95224.38;4997448;28;20124;-61
2021/11/01 07:18:39;;;;;;;32.53;22.10;;;;;;;11.96;100.00;95236.16;4982421;28;20082;-59
2021/11/01 07:21:26;;;;;;;33.30;22.48;;;;;;;12.23;100.00;95239.94;4989285;28;20082;-61
2021/11/01 08:28:37;;;;;;;6.35;4.40;;;;;;;14.14;100.00;95276.25;4983967;28;20069;-61
2021/11/01 08:37:01;;;;;;;5.25;4.35;;;;;;;13.95;100.00;95283.91;4983613;28;20097;-58
2021/11/01 08:39:46;;;;;;;6.40;4.63;;;;;;;14.09;100.00;95284.00;4983430;28;20088;-61
2021/11/01 09:04:40;;;;;;;4.32;3.55;;;;;;;14.10;100.00;95291.75;5003201;28;20069;-59
2021/11/01 09:07:28;;;;;;;5.30;3.33;;;;;;;14.09;100.00;95286.66;5004673;28;20719;-62
2021/11/01 09:10:24;;;;;;;4.97;3.30;;;;;;;14.39;100.00;95280.09;5002293;28;20058;-61
2021/11/01 09:13:18;;;;;;;4.28;2.72;;;;;;;14.12;100.00;95286.25;5007930;28;20084;-61
2021/11/01 09:18:51;;;;;;;3.85;2.90;;;;;;;14.19;100.00;95290.56;5005527;28;20085;-60
2021/11/01 09:27:02;;;;;;;5.57;3.33;;;;;;;13.83;100.00;95305.84;5005194;28;21397;-60
2021/11/01 09:29:45;;;;;;;19.73;4.38;;;;;;;13.69;100.00;95312.88;4998422;28;20081;-61
2021/11/01 09:38:11;;;;;;;5.00;3.38;;;;;;;13.82;100.00;95322.75;4988558;28;20069;-59
2021/11/01 09:43:47;;;;;;;6.13;3.53;;;;;;;13.42;100.00;95333.84;4906036;29;20090;-60
2021/11/01 09:46:16;;;;;;;5.03;3.45;;;;;;;13.63;100.00;95343.59;4925307;29;20067;-60
2021/11/01 09:48:45;;;;;;;4.78;3.40;;;;;;;13.66;100.00;95350.34;4952433;28;20085;-60
2021/11/01 09:51:14;;;;;;;8.02;3.05;;;;;;;13.42;100.00;95355.03;4989708;28;20082;-60
2021/11/01 09:53:44;;;;;;;8.55;3.70;;;;;;;13.12;100.00;95358.78;4981413;28;20074;-60
2021/11/01 09:56:30;;;;;;;5.18;3.00;;;;;;;13.34;100.00;95367.56;5001007;28;20072;-61
2021/11/01 09:59:12;;;;;;;4.20;2.90;;;;;;;13.11;100.00;95368.53;5001442;28;20577;-61
2021/11/01 10:01:42;;;;;;;4.63;3.50;;;;;;;13.37;100.00;95368.00;4993052;28;20074;-59
2021/11/01 10:04:22;;;;;;;5.90;3.63;;;;;;;13.07;100.00;95368.09;4986220;28;20042;-62
2021/11/01 10:07:16;;;;;;;4.90;3.58;;;;;;;13.16;100.00;95363.50;4989960;28;20096;-60
2021/11/01 10:09:44;;;;;;;4.00;3.40;;;;;;;13.30;100.00;95375.06;4999686;28;20082;-59
2021/11/01 10:12:13;;;;;;;4.45;3.35;;;;;;;13.02;100.00;95370.47;5009892;28;20543;-61
2021/11/01 10:14:51;;;;;;;5.35;3.25;;;;;;;12.99;100.00;95370.84;5001964;28;20096;-62
2021/11/01 10:17:35;;;;;;;4.22;3.17;;;;;;;12.94;100.00;95370.59;5001543;28;20038;-60
2021/11/01 10:20:07;;;;;;;5.22;3.28;;;;;;;13.07;100.00;95369.91;5007484;28;20073;-56
2021/11/01 10:22:37;;;;;;;5.65;3.13;;;;;;;13.22;100.00;95375.16;4993077;28;20702;-60
2021/11/01 10:25:06;;;;;;;;;;;;;;;13.02;100.00;95375.75;5002688;28;20453;-60
2021/11/01 10:27:37;;;;;;;5.47;3.50;;;;;;;13.41;100.00;95366.63;5003339;28;19971;-61
2021/11/01 10:30:08;;;;;;;5.05;3.20;;;;;;;13.50;100.00;95367.31;5005132;28;20078;-61
2021/11/01 10:32:42;;;;;;;5.75;3.25;;;;;;;13.51;100.00;95371.59;5000816;28;20062;-60
2021/11/01 10:35:18;;;;;;;3.53;2.92;;;;;;;13.41;100.00;95381.69;4991725;28;20077;-60
2021/11/01 10:38:14;;;;;;;4.15;2.85;;;;;;;13.15;100.00;95377.75;4976359;28;20070;-60
2021/11/01 10:40:50;;;;;;;3.13;2.72;;;;;;;13.15;100.00;95380.38;4987720;28;20073;-61
2021/11/01 10:43:46;;;;;;;4.20;2.88;;;;;;;13.08;100.00;95384.78;5006963;28;20081;-61
2021/11/01 10:57:57;;;;;;;3.95;2.40;;;;;;;13.05;100.00;95379.88;5003505;28;20543;-61
2021/11/01 11:11:44;;;;;;;5.95;2.70;;;;;;;13.14;100.00;95377.91;4997421;28;20092;-60
2021/11/01 11:14:23;;;;;;;5.22;3.00;;;;;;;13.24;100.00;95378.47;4995236;28;20073;-62
2021/11/01 11:17:12;;;;;;;3.60;2.60;;;;;;;13.11;100.00;95368.53;5001028;28;20065;-59
2021/11/01 11:20:01;;;;;;;4.32;2.70;;;;;;;13.15;100.00;95363.69;4997665;28;20077;-59
2021/11/01 11:25:38;;;;;;;5.60;2.72;;;;;;;13.24;100.00;95363.38;4999857;28;20085;-60
2021/11/01 11:28:37;;;;;;;4.35;2.90;;;;;;;13.13;100.00;95363.03;5006920;28;20061;-60
2021/11/01 11:33:59;;;;;;;5.07;2.97;;;;;;;13.47;100.00;95342.03;5003284;28;20073;-61
2021/11/01 11:42:30;;;;;;;4.43;2.65;;;;;;;13.20;100.00;95340.09;5000864;28;20532;-61
2021/11/01 11:48:04;;;;;;;4.82;2.80;;;;;;;13.36;100.00;95328.50;5001533;28;20747;-62
2021/11/01 11:50:34;;;;;;;5.78;3.55;;;;;;;13.60;100.00;95324.63;5004135;28;20096;-61
2021/11/01 11:53:14;;;;;;;5.68;3.13;;;;;;;13.66;100.00;95332.63;5002601;28;20077;-61
2021/11/01 11:55:44;;;;;;;5.22;3.30;;;;;;;13.62;100.00;95331.34;4999749;28;20088;-61
2021/11/01 11:58:15;;;;;;;5.38;3.38;;;;;;;13.41;100.00;95331.38;5006006;28;20073;-59
2021/11/01 12:00:44;;;;;;;4.68;2.90;;;;;;;13.85;100.00;95325.84;5006174;28;20081;-59
2021/11/01 12:03:14;;;;;;;3.65;2.42;;;;;;;13.89;100.00;95324.44;5007848;28;20058;-59
2021/11/01 12:05:48;;;;;;;7.50;2.60;;;;;;;13.77;100.00;95323.34;5004780;28;20077;-60
2021/11/01 12:08:23;;;;;;;4.55;2.55;;;;;;;13.99;100.00;95311.66;5000417;28;20058;-61
2021/11/01 12:19:15;;;;;;;3.65;2.00;;;;;;;14.04;100.00;95302.31;5015083;28;20104;-60
2021/11/01 12:21:46;;;;;;;3.35;2.20;;;;;;;13.98;100.00;95307.38;5009145;28;20073;-60
2021/11/01 12:24:21;;;;;;;3.38;2.20;;;;;;;14.31;100.00;95295.31;5009285;28;20421;-60
2021/11/01 12:26:51;;;;;;;3.60;2.60;;;;;;;14.21;100.00;95298.31;5009308;28;20552;-61
2021/11/01 12:29:19;;;;;;;3.95;2.47;;;;;;;14.09;100.00;95305.22;5008997;28;20554;-61
2021/11/01 12:32:00;;;;;;;5.20;2.92;;;;;;;14.07;100.00;95309.88;5009314;28;20683;-57
2021/11/01 12:34:40;;;;;;;4.32;2.75;;;;;;;13.94;100.00;95311.44;5001275;28;20085;-57
2021/11/01 12:37:14;;;;;;;5.65;2.90;;;;;;;13.51;100.00;95306.22;5004256;28;20038;-59
2021/11/01 12:39:49;;;;;;;5.05;3.30;;;;;;;13.69;100.00;95307.56;5004797;28;20097;-60
2021/11/01 12:42:35;;;;;;;5.25;3.17;;;;;;;13.29;100.00;95305.41;5012235;28;20529;-58
2021/11/01 12:59:14;;;;;;;6.20;3.88;;;;;;;13.05;100.00;95308.41;5008274;28;20065;-57
2021/11/01 13:01:48;;;;;;;6.65;3.60;;;;;;;13.27;100.00;95311.91;5008341;28;20105;-58
2021/11/01 13:04:33;;;;;;;5.57;4.03;;;;;;;13.42;100.00;95317.13;5008583;28;20058;-53
2021/11/01 13:07:08;;;;;;;7.20;4.20;;;;;;;13.30;100.00;95307.03;5008465;28;20072;-56
2021/11/01 13:09:41;;;;;;;7.80;4.22;;;;;;;13.13;100.00;95302.97;4998863;28;20093;-56
2021/11/01 13:12:30;;;;;;;6.57;4.30;;;;;;;13.56;100.00;95300.34;5011774;28;20085;-57
2021/11/01 13:15:08;;;;;;;7.05;4.82;;;;;;;13.13;100.00;95302.97;5007955;28;21262;-56
2021/11/01 13:17:55;;;;;;;6.07;3.88;;;;;;;12.79;100.00;95308.94;5000563;28;20069;-54
2021/11/01 13:20:25;;;;;;;6.13;3.20;;;;;;;12.30;100.00;95304.28;5008215;28;20092;-54
2021/11/01 13:22:56;;;;;;;4.25;2.20;;;;;;;12.27;100.00;95304.66;5001157;28;20098;-57
2021/11/01 13:25:29;;;;;;;2.70;1.80;;;;;;;12.02;100.00;95309.41;5007621;28;20461;-56
2021/11/01 13:37:14;;;;;;;2.22;1.67;;;;;;;12.49;100.00;95300.22;5007670;28;20471;-57
2021/11/01 13:39:43;;;;;;;2.88;1.75;;;;;;;12.54;100.00;95296.03;5006072;28;20093;-57
2021/11/01 13:42:16;;;;;;;2.28;1.70;;;;;;;12.51;100.00;95298.25;5010802;28;20110;-57
2021/11/01 13:44:46;;;;;;;2.47;1.83;;;;;;;12.59;100.00;95285.75;5007534;28;20066;-53
2021/11/01 13:47:17;;;;;;;2.03;1.60;;;;;;;12.72;100.00;95295.63;4993263;28;20073;-52
2021/11/01 13:49:47;;;;;;;;;;;;;;;12.77;100.00;95292.44;5024586;28;20069;-54
2021/11/01 13:55:06;;;;;;;3.00;1.70;;;;;;;12.64;100.00;95292.28;5008260;28;20065;-54
2021/11/01 13:57:46;;;;;;;2.00;1.80;;;;;;;12.72;100.00;95295.63;5007737;28;20120;-53
2021/11/01 14:00:33;;;;;;;2.63;1.88;;;;;;;12.79;100.00;95301.00;5010180;28;20069;-56
2021/11/01 14:03:24;;;;;;;3.47;1.98;;;;;;;12.58;100.00;95309.72;4990335;28;20088;-55
2021/11/01 14:11:37;;;;;;;2.00;1.90;;;;;;;12.60;100.00;95294.50;5006587;28;20058;-54
2021/11/01 14:14:19;;;;;;;3.33;1.98;;;;;;;12.64;100.00;95292.28;5007738;28;20444;-56
2021/11/01 14:16:55;;;;;;;2.15;1.88;;;;;;;12.57;100.00;95290.38;5004399;28;20074;-58
2021/11/01 14:27:50;;;;;;;3.35;1.85;;;;;;;12.48;100.00;95286.19;5004882;28;20098;-52
2021/11/01 14:33:53;;;;;;;3.53;2.13;;;;;;;12.65;100.00;95275.41;5007645;28;20318;-54
2021/11/01 15:12:59;;;;;;;4.05;2.95;;;;;;;12.18;100.00;95266.94;5001661;28;20062;-52
2021/11/01 15:21:16;;;;;;;4.85;3.40;;;;;;;12.96;100.00;95262.72;5002439;28;20108;-54
2021/11/01 15:24:08;;;;;;;5.75;3.67;;;;;;;12.77;100.00;95260.69;5006573;28;20068;-55
2021/11/01 15:26:57;;;;;;;4.78;3.40;;;;;;;12.07;100.00;95264.72;5008522;28;20069;-51
2021/11/01 15:35:26;;;;;;;3.90;3.50;;;;;;;12.46;100.00;95259.16;4996758;28;20066;-53
2021/11/01 15:38:08;;;;;;;4.45;3.50;;;;;;;11.60;100.00;95260.63;4999194;28;20526;-57
2021/11/01 16:19:36;;;;;;;2.50;2.17;;;;;;;10.68;100.00;95253.59;5006536;28;20519;-56
2021/11/01 16:22:05;;;;;;;2.30;2.10;;;;;;;10.68;100.00;95256.25;5021803;28;20493;-56
2021/11/01 16:24:38;;;;;;;2.53;2.33;;;;;;;10.97;100.00;95257.34;5004109;28;20077;-51
2021/11/01 16:27:08;;;;;;;2.40;2.17;;;;;;;10.86;100.00;95249.84;5016361;28;20069;-57
2021/11/01 16:29:45;;;;;;;2.53;2.20;;;;;;;11.04;100.00;95258.28;5009403;28;20068;-52
2021/11/01 16:32:18;;;;;;;3.30;2.55;;;;;;;11.20;100.00;95254.69;5009802;28;20069;-55
2021/11/01 16:34:51;;;;;;;2.60;2.25;;;;;;;10.73;100.00;95262.78;5007206;28;20065;-58
2021/11/01 16:37:29;;;;;;;2.75;2.10;;;;;;;10.57;100.00;95264.56;5002752;28;20062;-55
2021/11/01 16:40:00;;;;;;;2.83;2.00;;;;;;;10.18;100.00;95270.63;5003330;28;20061;-52
2021/11/01 16:42:32;;;;;;;3.00;2.08;;;;;;;10.45;100.00;95273.84;5007113;28;20078;-56
2021/11/01 16:45:09;;;;;;;2.42;2.03;;;;;;;10.49;100.00;95276.94;5002002;28;21298;-52
2021/11/01 16:47:38;;;;;;;3.22;2.20;;;;;;;10.58;100.00;95281.19;5001226;28;20081;-56
2021/11/01 16:50:08;;;;;;;2.85;2.10;;;;;;;10.23;100.00;95283.31;5007372;28;20467;-55
2021/11/01 16:52:36;;;;;;;4.25;2.10;;;;;;;10.04;100.00;95289.78;5003573;28;20077;-54
2021/11/01 16:55:12;;;;;;;2.30;2.10;;;;;;;10.34;100.00;95282.13;5008960;28;20471;-54
2021/11/01 16:57:44;;;;;;;2.13;2.03;;;;;;;10.37;100.00;95293.16;5009791;28;20455;-55
2021/11/01 17:00:24;;;;;;;2.30;2.08;;;;;;;10.13;100.00;95294.03;4996030;28;20081;-55
2021/11/01 17:03:05;;;;;;;3.50;2.00;;;;;;;10.05;100.00;95295.88;5007910;28;20074;-58
2021/11/01 17:05:45;;;;;;;;;;;;;;;9.96;100.00;95301.16;5006118;28;20077;-56
2021/11/01 17:08:46;;;;;;;2.75;2.03;;;;;;;9.77;100.00;95303.34;5004804;28;19961;-55
2021/11/01 17:22:25;;;;;;;2.13;1.92;;;;;;;9.74;100.00;95305.34;5008571;28;20508;-57
2021/11/01 17:24:58;;;;;;;2.15;1.95;;;;;;;9.94;100.00;95302.31;5009120;28;20085;-56
2021/11/01 17:28:08;;;;;;;2.22;2.03;;;;;;;9.63;100.00;95299.59;5008431;28;20516;-54
2021/11/01 17:31:10;;;;;;;2.15;1.98;;;;;;;9.77;100.00;95306.00;4999432;28;20053;-54
2021/11/01 18:41:17;;;;;;;2.28;2.00;;;;;;;9.95;100.00;95283.75;5006156;28;20072;-59
2021/11/01 18:52:18;;;;;;;2.50;2.30;;;;;;;10.13;100.00;95280.06;5005503;28;20542;-55